createdAt,value
2022-08-05T00:00:25.878Z,82.84
2022-08-05T00:01:27.896Z,82.95
2022-08-05T00:02:24.547Z,82.95
2022-08-05T00:03:23.525Z,83.04
2022-08-05T00:04:23.456Z,83.04
2022-08-05T00:06:02.663Z,83.04
2022-08-05T00:06:32.259Z,83.15
2022-08-05T00:07:58.864Z,83.04
2022-08-05T00:08:34.298Z,83.04
2022-08-05T00:09:24.396Z,83.04
2022-08-05T00:10:27.091Z,83.04
2022-08-05T00:11:28.099Z,82.95
2022-08-05T00:12:24.376Z,83.04
2022-08-05T00:13:38.343Z,83.04
2022-08-05T00:14:27.809Z,82.95
2022-08-05T00:15:56.135Z,83.15
2022-08-05T00:16:36.475Z,83.35
2022-08-05T00:17:24.315Z,83.35
2022-08-05T00:18:23.295Z,83.35
2022-08-05T00:19:24.948Z,83.29
2022-08-05T00:20:28.925Z,83.09
2022-08-05T00:21:24.255Z,83.29
2022-08-05T00:22:24.265Z,83.18
2022-08-05T00:23:44.374Z,83.39
2022-08-05T00:24:30.945Z,83.49
2022-08-05T00:25:24.215Z,83.39
2022-08-05T00:26:23.205Z,83.29
2022-08-05T00:27:36.133Z,83.09
2022-08-05T00:28:29.722Z,82.98
2022-08-05T00:29:25.821Z,83.18
2022-08-05T00:30:29.291Z,83.18
2022-08-05T00:31:53.458Z,83.18
2022-08-05T00:32:25.753Z,83.18
2022-08-05T00:34:53.476Z,83.39
2022-08-05T00:34:56.865Z,83.39
2022-08-05T00:35:24.099Z,83.39
2022-08-05T00:37:10.483Z,83.49
2022-08-05T00:37:24.423Z,83.59
2022-08-05T00:38:28.863Z,83.49
2022-08-05T00:39:24.538Z,83.49
2022-08-05T00:40:27.955Z,83.29
2022-08-05T00:41:24.032Z,83.18
2022-08-05T00:42:31.825Z,82.89
2022-08-05T00:43:24.013Z,82.98
2022-08-05T00:44:23.353Z,83.39
2022-08-05T00:45:38.091Z,83.69
2022-08-05T00:46:36.962Z,83.59
2022-08-05T00:47:23.972Z,83.39
2022-08-05T00:48:27.759Z,83.09
2022-08-05T00:49:23.963Z,82.98
2022-08-05T00:50:25.166Z,82.89
2022-08-05T00:51:51.194Z,83.12
2022-08-05T00:52:28.200Z,83.49
2022-08-05T00:54:00.547Z,83.69
2022-08-05T00:54:23.883Z,83.69
2022-08-05T00:55:22.874Z,83.49
2022-08-05T00:56:23.109Z,83.49
2022-08-05T00:57:25.130Z,83.49
2022-08-05T00:58:27.162Z,83.53
2022-08-05T00:59:22.823Z,83.53
2022-08-05T01:00:22.811Z,83.53
2022-08-05T01:01:42.176Z,83.43
2022-08-05T01:02:24.414Z,83.43
2022-08-05T01:03:23.504Z,83.53
2022-08-05T01:04:26.954Z,83.53
2022-08-05T01:05:23.752Z,83.63
2022-08-05T01:06:26.595Z,83.63
2022-08-05T01:07:23.944Z,83.73
2022-08-05T01:08:41.774Z,83.83
2022-08-05T01:09:23.703Z,84.03
2022-08-05T01:10:25.831Z,84.23
2022-08-05T01:11:33.339Z,84.33
2022-08-05T01:12:23.683Z,84.33
2022-08-05T01:13:27.161Z,84.23
2022-08-05T01:14:28.475Z,84.17
2022-08-05T01:15:36.440Z,84.17
2022-08-05T01:16:26.341Z,84.17
2022-08-05T01:17:22.907Z,84.27
2022-08-05T01:18:22.600Z,84.07
2022-08-05T01:19:46.314Z,84.17
2022-08-05T01:20:23.581Z,84.37
2022-08-05T01:21:23.075Z,84.27
2022-08-05T01:22:24.069Z,84.27
2022-08-05T01:23:22.728Z,84.27
2022-08-05T01:24:22.540Z,84.17
2022-08-05T01:25:22.530Z,84.27
2022-08-05T01:26:26.171Z,84.17
2022-08-05T01:27:22.501Z,84.17
2022-08-05T01:28:22.484Z,84.07
2022-08-05T01:29:23.196Z,84.27
2022-08-05T01:30:34.817Z,84.07
2022-08-05T01:31:23.450Z,84.17
2022-08-05T01:32:22.451Z,84.07
2022-08-05T01:33:22.430Z,84.07
2022-08-05T01:34:22.410Z,84.07
2022-08-05T01:35:51.966Z,84.07
2022-08-05T01:36:28.328Z,84.07
2022-08-05T01:37:25.128Z,84.07
2022-08-05T01:38:24.670Z,84.07
2022-08-05T01:39:46.341Z,84.21
2022-08-05T01:40:27.966Z,84.37
2022-08-05T01:41:25.520Z,84.37
2022-08-05T01:42:22.338Z,84.31
2022-08-05T01:43:24.156Z,84.21
2022-08-05T01:44:22.300Z,84.27
2022-08-05T01:45:23.292Z,84.27
2022-08-05T01:46:42.466Z,84.27
2022-08-05T01:47:23.411Z,84.47
2022-08-05T01:48:22.252Z,84.51
2022-08-05T01:49:24.131Z,84.41
2022-08-05T01:50:28.591Z,84.31
2022-08-05T01:51:23.218Z,84.31
2022-08-05T01:52:22.346Z,84.41
2022-08-05T01:53:54.588Z,84.41
2022-08-05T01:54:24.633Z,84.21
2022-08-05T01:55:22.179Z,84.01
2022-08-05T01:58:10.468Z,84.31
2022-08-05T01:58:10.637Z,84.21
2022-08-05T01:58:40.475Z,84.41
2022-08-05T01:59:23.128Z,84.51
2022-08-05T02:00:30.132Z,84.51
2022-08-05T02:01:23.311Z,84.51
2022-08-05T02:02:25.999Z,84.51
2022-08-05T02:03:29.017Z,84.71
2022-08-05T02:04:23.087Z,84.71
2022-08-05T02:05:23.379Z,84.85
2022-08-05T02:06:36.967Z,84.85
2022-08-05T02:07:23.311Z,85.05
2022-08-05T02:08:29.755Z,84.95
2022-08-05T02:09:23.015Z,84.95
2022-08-05T02:10:28.150Z,85.05
2022-08-05T02:11:23.706Z,85.16
2022-08-05T02:12:21.996Z,85.05
2022-08-05T02:13:22.021Z,85.16
2022-08-05T02:14:21.965Z,85.16
2022-08-05T02:15:21.946Z,85.05
2022-08-05T02:16:22.245Z,85.16
2022-08-05T02:18:27.998Z,85.16
2022-08-05T02:18:30.821Z,85.25
2022-08-05T02:19:22.904Z,85.25
2022-08-05T02:20:22.271Z,85.16
2022-08-05T02:21:21.888Z,85.16
2022-08-05T02:22:26.671Z,85.25
2022-08-05T02:23:22.855Z,85.05
2022-08-05T02:24:23.184Z,85.05
2022-08-05T02:25:21.835Z,85.16
2022-08-05T02:26:21.918Z,85.25
2022-08-05T02:27:29.866Z,85.46
2022-08-05T02:28:28.833Z,85.56
2022-08-05T02:29:26.058Z,85.56
2022-08-05T02:30:22.774Z,85.56
2022-08-05T02:31:21.779Z,85.46
2022-08-05T02:32:24.170Z,85.36
2022-08-05T02:33:24.640Z,85.36
2022-08-05T02:34:22.737Z,85.36
2022-08-05T02:35:27.831Z,85.46
2022-08-05T02:36:22.726Z,85.46
2022-08-05T02:37:22.937Z,85.56
2022-08-05T02:38:21.694Z,85.66
2022-08-05T02:39:22.758Z,85.66
2022-08-05T02:40:21.676Z,85.56
2022-08-05T02:41:22.966Z,85.56
2022-08-05T02:42:26.052Z,85.56
2022-08-05T02:43:22.634Z,85.46
2022-08-05T02:44:21.625Z,85.46
2022-08-05T02:45:24.183Z,85.36
2022-08-05T02:46:27.646Z,85.36
2022-08-05T02:47:22.744Z,85.46
2022-08-05T02:48:21.583Z,85.36
2022-08-05T02:49:22.565Z,85.46
2022-08-05T02:50:21.563Z,85.46
2022-08-05T02:51:28.264Z,85.56
2022-08-05T02:52:30.167Z,85.56
2022-08-05T02:53:22.533Z,85.56
2022-08-05T02:54:35.687Z,85.36
2022-08-05T02:55:54.856Z,85.46
2022-08-05T02:56:22.492Z,85.46
2022-08-05T02:58:11.772Z,85.36
2022-08-05T02:58:22.787Z,85.36
2022-08-05T02:59:21.460Z,85.36
2022-08-05T03:00:22.452Z,85.36
2022-08-05T03:01:21.537Z,85.16
2022-08-05T03:02:21.437Z,85.25
2022-08-05T03:03:23.439Z,85.16
2022-08-05T03:04:23.109Z,85.05
2022-08-05T03:05:21.675Z,85.05
2022-08-05T03:06:55.443Z,84.95
2022-08-05T03:08:00.647Z,85.05
2022-08-05T03:08:29.552Z,85.05
2022-08-05T03:09:27.109Z,85.16
2022-08-05T03:10:24.825Z,85.36
2022-08-05T03:11:55.599Z,85.50
2022-08-05T03:12:22.322Z,85.60
2022-08-05T03:13:21.301Z,85.60
2022-08-05T03:14:22.311Z,85.60
2022-08-05T03:15:21.271Z,85.30
2022-08-05T03:16:21.269Z,85.20
2022-08-05T03:17:21.662Z,85.50
2022-08-05T03:18:29.818Z,85.40
2022-08-05T03:19:33.524Z,85.30
2022-08-05T03:20:22.233Z,85.60
2022-08-05T03:21:21.217Z,85.80
2022-08-05T03:22:32.384Z,85.90
2022-08-05T03:23:24.130Z,85.80
2022-08-05T03:24:29.550Z,85.80
2022-08-05T03:25:33.564Z,85.70
2022-08-05T03:26:31.843Z,85.66
2022-08-05T03:27:22.361Z,85.70
2022-08-05T03:28:22.130Z,85.50
2022-08-05T03:29:21.120Z,85.40
2022-08-05T03:30:21.110Z,85.40
2022-08-05T03:31:55.456Z,85.40
2022-08-05T03:32:22.090Z,85.30
2022-08-05T03:33:22.071Z,85.40
2022-08-05T03:34:21.070Z,85.40
2022-08-05T03:35:21.049Z,85.50
2022-08-05T03:36:30.070Z,85.50
2022-08-05T03:37:22.791Z,85.50
2022-08-05T03:38:32.733Z,85.50
2022-08-05T03:39:27.189Z,85.50
2022-08-05T03:40:24.427Z,85.70
2022-08-05T03:41:23.642Z,85.70
2022-08-05T03:42:20.979Z,85.90
2022-08-05T03:44:09.760Z,85.90
2022-08-05T03:44:21.969Z,85.90
2022-08-05T03:45:22.792Z,85.90
2022-08-05T03:46:20.930Z,85.90
2022-08-05T03:47:22.157Z,85.90
2022-08-05T03:48:21.998Z,86.00
2022-08-05T03:49:20.899Z,86.21
2022-08-05T03:50:20.888Z,86.30
2022-08-05T03:52:37.211Z,86.00
2022-08-05T03:52:39.292Z,86.00
2022-08-05T03:55:50.896Z,86.00
2022-08-05T03:55:52.703Z,86.10
2022-08-05T03:56:05.472Z,85.70
2022-08-05T03:56:30.521Z,85.70
2022-08-05T03:57:21.808Z,85.90
2022-08-05T03:58:21.809Z,85.90
2022-08-05T03:59:21.788Z,85.80
2022-08-05T04:00:20.779Z,85.50
2022-08-05T04:01:21.144Z,85.70
2022-08-05T04:02:37.484Z,85.60
2022-08-05T04:03:28.207Z,85.50
2022-08-05T04:04:21.728Z,85.50
2022-08-05T04:05:20.717Z,85.40
2022-08-05T04:06:20.738Z,85.30
2022-08-05T04:07:20.936Z,85.40
2022-08-05T04:08:34.606Z,85.60
2022-08-05T04:09:26.465Z,85.30
2022-08-05T04:10:21.668Z,85.05
2022-08-05T04:11:20.647Z,85.16
2022-08-05T04:12:24.585Z,85.25
2022-08-05T04:13:20.627Z,85.16
2022-08-05T04:14:30.536Z,85.25
2022-08-05T04:15:24.452Z,85.16
2022-08-05T04:16:24.940Z,85.25
2022-08-05T04:17:21.701Z,85.40
2022-08-05T04:18:22.673Z,85.30
2022-08-05T04:19:21.557Z,85.30
2022-08-05T04:20:20.557Z,85.40
2022-08-05T04:22:08.670Z,85.60
2022-08-05T04:22:21.535Z,85.70
2022-08-05T04:23:20.537Z,85.60
2022-08-05T04:24:22.511Z,85.70
2022-08-05T04:25:38.350Z,85.70
2022-08-05T04:26:21.476Z,85.80
2022-08-05T04:27:42.138Z,85.60
2022-08-05T04:28:31.065Z,85.90
2022-08-05T04:29:21.466Z,86.00
2022-08-05T04:30:20.434Z,85.90
2022-08-05T04:31:20.434Z,86.00
2022-08-05T04:32:30.709Z,86.00
2022-08-05T04:33:54.582Z,86.00
2022-08-05T04:34:33.435Z,85.80
2022-08-05T04:35:21.385Z,85.80
2022-08-05T04:36:46.323Z,85.90
2022-08-05T04:37:21.508Z,86.00
2022-08-05T04:38:21.346Z,86.10
2022-08-05T04:39:20.386Z,86.10
2022-08-05T04:40:20.324Z,86.30
2022-08-05T04:41:20.317Z,86.30
2022-08-05T04:42:21.304Z,86.30
2022-08-05T04:43:21.869Z,86.41
2022-08-05T04:44:21.321Z,86.41
2022-08-05T04:45:23.000Z,86.51
2022-08-05T04:46:28.313Z,86.36
2022-08-05T04:47:21.603Z,86.46
2022-08-05T04:48:27.629Z,86.66
2022-08-05T04:49:24.852Z,86.57
2022-08-05T04:50:37.216Z,86.77
2022-08-05T04:51:21.204Z,86.77
2022-08-05T04:52:20.240Z,86.87
2022-08-05T04:53:20.185Z,86.87
2022-08-05T04:54:20.166Z,86.97
2022-08-05T04:55:21.042Z,86.72
2022-08-05T04:56:34.792Z,86.63
2022-08-05T04:57:21.324Z,87.02
2022-08-05T04:58:21.678Z,86.93
2022-08-05T04:59:23.849Z,87.23
2022-08-05T05:00:23.570Z,87.02
2022-08-05T05:01:33.449Z,86.99
2022-08-05T05:02:41.757Z,87.08
2022-08-05T05:03:21.061Z,87.29
2022-08-05T05:04:20.051Z,87.19
2022-08-05T05:05:28.488Z,87.29
2022-08-05T05:06:40.241Z,87.55
2022-08-05T05:07:23.868Z,87.55
2022-08-05T05:08:26.758Z,87.04
2022-08-05T05:09:21.057Z,87.15
2022-08-05T05:10:20.038Z,86.80
2022-08-05T05:11:19.981Z,87.21
2022-08-05T05:12:19.965Z,87.71
2022-08-05T05:13:19.952Z,87.41
2022-08-05T05:14:21.252Z,87.26
2022-08-05T05:15:56.632Z,87.06
2022-08-05T05:16:20.912Z,86.86
2022-08-05T05:17:24.351Z,87.06
2022-08-05T05:18:31.113Z,86.12
2022-08-05T05:19:23.535Z,85.82
2022-08-05T05:20:20.861Z,85.11
2022-08-05T05:21:19.871Z,84.07
2022-08-05T05:22:24.576Z,84.67
2022-08-05T05:23:20.832Z,84.67
2022-08-05T05:24:19.822Z,83.83
2022-08-05T05:25:19.819Z,83.23
2022-08-05T05:26:28.644Z,82.32
2022-08-05T05:27:20.878Z,82.18
2022-08-05T05:28:19.771Z,81.38
2022-08-05T05:29:19.761Z,82.09
2022-08-05T05:30:29.077Z,81.95
2022-08-05T05:31:20.751Z,79.94
2022-08-05T05:32:19.741Z,79.24
2022-08-05T05:33:23.334Z,77.70
2022-08-05T05:34:26.595Z,78.60
2022-08-05T05:35:20.701Z,76.17
2022-08-05T05:36:19.681Z,75.67
2022-08-05T05:37:19.680Z,75.63
2022-08-05T05:38:26.785Z,75.52
2022-08-05T05:39:20.666Z,74.39
2022-08-05T05:40:19.842Z,75.09
2022-08-05T05:41:19.631Z,75.29
2022-08-05T05:42:20.805Z,74.36
2022-08-05T05:43:27.560Z,73.75
2022-08-05T05:44:36.766Z,73.86
2022-08-05T05:45:20.606Z,72.96
2022-08-05T05:46:19.570Z,72.72
2022-08-05T05:47:21.619Z,72.42
2022-08-05T05:48:19.552Z,73.02
2022-08-05T05:49:23.074Z,73.19
2022-08-05T05:50:19.643Z,73.19
2022-08-05T05:51:19.522Z,72.99
2022-08-05T05:52:28.392Z,72.89
2022-08-05T05:53:22.076Z,73.15
2022-08-05T05:54:19.608Z,74.05
2022-08-05T05:55:19.470Z,73.65
2022-08-05T05:56:26.002Z,73.55
2022-08-05T05:57:20.526Z,73.15
2022-08-05T05:58:19.431Z,73.35
2022-08-05T05:59:20.429Z,71.92
2022-08-05T06:00:19.442Z,72.42
2022-08-05T06:01:19.399Z,70.32
2022-08-05T06:02:32.880Z,70.29
2022-08-05T06:03:39.626Z,70.29
2022-08-05T06:04:20.453Z,70.65
2022-08-05T06:05:19.361Z,70.16
2022-08-05T06:06:19.349Z,69.66
2022-08-05T06:07:22.489Z,69.62
2022-08-05T06:08:31.851Z,69.82
2022-08-05T06:09:25.757Z,69.23
2022-08-05T06:10:20.318Z,69.13
2022-08-05T06:11:19.287Z,69.13
2022-08-05T06:12:19.624Z,68.99
2022-08-05T06:13:19.270Z,68.50
2022-08-05T06:14:19.257Z,68.70
2022-08-05T06:15:24.175Z,68.27
2022-08-05T06:16:31.825Z,67.67
2022-08-05T06:17:21.946Z,69.06
2022-08-05T06:18:19.209Z,68.53
2022-08-05T06:19:34.071Z,68.37
2022-08-05T06:20:21.691Z,68.16
2022-08-05T06:21:19.168Z,69.46
2022-08-05T06:22:19.171Z,68.46
2022-08-05T06:23:19.149Z,67.57
2022-08-05T06:24:19.138Z,68.04
2022-08-05T06:25:24.934Z,67.93
2022-08-05T06:26:21.659Z,68.04
2022-08-05T06:28:12.211Z,68.27
2022-08-05T06:28:20.903Z,68.73
2022-08-05T06:29:25.126Z,67.33
2022-08-05T06:30:21.065Z,67.04
2022-08-05T06:31:22.235Z,66.35
2022-08-05T06:32:26.411Z,66.74
2022-08-05T06:33:20.037Z,67.54
2022-08-05T06:34:20.224Z,68.13
2022-08-05T06:36:01.992Z,67.14
2022-08-05T06:36:20.019Z,67.24
2022-08-05T06:37:56.818Z,67.44
2022-08-05T06:38:35.920Z,67.93
2022-08-05T06:39:20.024Z,67.63
2022-08-05T06:40:21.391Z,67.74
2022-08-05T06:41:19.987Z,67.74
2022-08-05T06:42:18.948Z,67.24
2022-08-05T06:43:58.875Z,67.24
2022-08-05T06:44:19.918Z,67.24
2022-08-05T06:45:21.315Z,66.94
2022-08-05T06:46:19.910Z,67.33
2022-08-05T06:47:29.918Z,67.63
2022-08-05T06:48:53.009Z,67.93
2022-08-05T06:49:21.465Z,67.63
2022-08-05T06:50:19.848Z,68.43
2022-08-05T06:51:22.722Z,66.84
2022-08-05T06:52:37.797Z,66.74
2022-08-05T06:53:22.707Z,66.71
2022-08-05T06:54:19.808Z,66.31
2022-08-05T06:55:19.791Z,66.41
2022-08-05T06:56:26.403Z,66.81
2022-08-05T06:58:02.651Z,67.21
2022-08-05T06:58:34.910Z,67.21
2022-08-05T06:59:19.746Z,66.61
2022-08-05T07:00:24.747Z,67.00
2022-08-05T07:01:21.074Z,67.11
2022-08-05T07:02:18.728Z,67.11
2022-08-05T07:03:18.709Z,67.11
2022-08-05T07:04:19.220Z,66.41
2022-08-05T07:05:20.640Z,66.51
2022-08-05T07:06:19.209Z,66.51
2022-08-05T07:07:24.163Z,66.71
2022-08-05T07:08:19.648Z,65.91
2022-08-05T07:09:19.717Z,65.72
2022-08-05T07:10:19.626Z,66.51
2022-08-05T07:11:22.476Z,66.11
2022-08-05T07:12:19.618Z,66.31
2022-08-05T07:13:52.480Z,66.01
2022-08-05T07:14:20.761Z,66.21
2022-08-05T07:15:34.413Z,66.71
2022-08-05T07:17:57.285Z,66.71
2022-08-05T07:18:00.692Z,66.41
2022-08-05T07:18:29.349Z,65.72
2022-08-05T07:19:44.290Z,65.42
2022-08-05T07:20:37.067Z,65.72
2022-08-05T07:21:25.887Z,66.21
2022-08-05T07:22:19.498Z,65.42
2022-08-05T07:23:26.358Z,65.72
2022-08-05T07:24:19.467Z,65.72
2022-08-05T07:25:54.287Z,65.25
2022-08-05T07:26:22.694Z,65.64
2022-08-05T07:27:19.498Z,65.84
2022-08-05T07:28:18.448Z,65.84
2022-08-05T07:29:18.437Z,65.94
2022-08-05T07:30:23.887Z,65.64
2022-08-05T07:31:19.387Z,65.15
2022-08-05T07:32:19.375Z,65.45
2022-08-05T07:33:19.377Z,66.44
2022-08-05T07:34:21.285Z,65.55
2022-08-05T07:36:01.418Z,64.65
2022-08-05T07:36:20.186Z,64.65
2022-08-05T07:37:18.327Z,65.18
2022-08-05T07:38:33.022Z,64.98
2022-08-05T07:39:50.369Z,64.39
2022-08-05T07:40:32.665Z,64.69
2022-08-05T07:42:09.232Z,64.78
2022-08-05T07:42:19.312Z,65.18
2022-08-05T07:43:20.843Z,64.78
2022-08-05T07:44:19.495Z,65.28
2022-08-05T07:45:18.227Z,65.08
2022-08-05T07:46:25.549Z,65.18
2022-08-05T07:47:19.208Z,64.78
2022-08-05T07:49:03.125Z,64.69
2022-08-05T07:49:19.201Z,64.78
2022-08-05T07:50:18.166Z,65.08
2022-08-05T07:51:23.409Z,64.65
2022-08-05T07:52:19.148Z,63.89
2022-08-05T07:53:18.137Z,63.76
2022-08-05T07:54:18.619Z,63.49
2022-08-05T07:56:04.957Z,63.36
2022-08-05T07:57:02.822Z,63.36
2022-08-05T07:57:51.180Z,62.93
2022-08-05T07:58:57.214Z,63.43
2022-08-05T07:59:23.269Z,63.73
2022-08-05T08:00:19.057Z,62.80
2022-08-05T08:01:18.107Z,62.80
2022-08-05T08:02:18.330Z,63.49
2022-08-05T08:03:18.027Z,62.27
2022-08-05T08:04:18.007Z,62.87
2022-08-05T08:05:19.018Z,62.18
2022-08-05T08:06:17.987Z,61.88
2022-08-05T08:07:21.968Z,62.07
2022-08-05T08:08:19.877Z,63.37
2022-08-05T08:09:17.965Z,62.07
2022-08-05T08:10:20.615Z,61.38
2022-08-05T08:11:17.936Z,61.68
2022-08-05T08:12:35.673Z,61.58
2022-08-05T08:13:21.937Z,62.45
2022-08-05T08:14:19.153Z,61.45
2022-08-05T08:15:17.898Z,61.65
2022-08-05T08:16:35.081Z,62.15
2022-08-05T08:17:18.869Z,61.35
2022-08-05T08:18:20.923Z,61.65
2022-08-05T08:20:00.381Z,61.55
2022-08-05T08:20:43.574Z,62.34
2022-08-05T08:21:18.823Z,61.72
2022-08-05T08:22:17.806Z,61.72
2022-08-05T08:24:03.400Z,62.31
2022-08-05T08:24:18.790Z,61.22
2022-08-05T08:25:18.025Z,61.29
2022-08-05T08:26:29.253Z,61.19
2022-08-05T08:27:18.761Z,60.89
2022-08-05T08:28:18.915Z,61.49
2022-08-05T08:30:03.302Z,60.33
2022-08-05T08:30:32.385Z,60.80
2022-08-05T08:31:18.720Z,61.39
2022-08-05T08:32:21.440Z,61.49
2022-08-05T08:33:19.240Z,61.69
2022-08-05T08:34:18.511Z,60.70
2022-08-05T08:35:17.686Z,61.39
2022-08-05T08:36:48.827Z,61.49
2022-08-05T08:37:19.599Z,61.19
2022-08-05T08:38:18.642Z,60.40
2022-08-05T08:39:18.642Z,60.50
2022-08-05T08:40:17.608Z,60.99
2022-08-05T08:41:17.596Z,61.26
2022-08-05T08:42:33.757Z,62.05
2022-08-05T08:44:54.656Z,60.37
2022-08-05T08:45:18.819Z,60.77
2022-08-05T08:45:26.731Z,60.50
2022-08-05T08:46:18.547Z,61.07
2022-08-05T08:47:47.437Z,60.86
2022-08-05T08:48:36.067Z,61.07
2022-08-05T08:50:22.689Z,60.77
2022-08-05T08:50:31.842Z,60.96
2022-08-05T08:52:01.861Z,61.39
2022-08-05T08:52:18.466Z,60.80
2022-08-05T08:53:17.480Z,60.70
2022-08-05T08:54:17.456Z,60.89
2022-08-05T08:55:19.615Z,60.99
2022-08-05T08:56:18.426Z,61.36
2022-08-05T08:57:17.716Z,60.86
2022-08-05T08:58:17.405Z,61.13
2022-08-05T08:59:19.696Z,60.81
2022-08-05T09:00:19.472Z,60.81
2022-08-05T09:01:18.353Z,60.51
2022-08-05T09:02:17.356Z,60.91
2022-08-05T09:03:19.298Z,60.51
2022-08-05T09:04:17.335Z,60.41
2022-08-05T09:05:18.446Z,60.05
2022-08-05T09:06:21.280Z,60.74
2022-08-05T09:07:28.209Z,61.00
2022-08-05T09:08:18.287Z,61.70
2022-08-05T09:09:17.276Z,60.71
2022-08-05T09:10:17.276Z,61.00
2022-08-05T09:11:17.257Z,61.50
2022-08-05T09:12:20.298Z,61.00
2022-08-05T09:13:17.237Z,60.97
2022-08-05T09:14:57.504Z,60.28
2022-08-05T09:15:18.216Z,58.57
2022-08-05T09:16:17.249Z,58.40
2022-08-05T09:17:42.591Z,58.30
2022-08-05T09:18:18.182Z,58.70
2022-08-05T09:19:17.167Z,59.09
2022-08-05T09:20:36.202Z,59.66
2022-08-05T09:22:13.526Z,58.57
2022-08-05T09:22:30.952Z,59.95
2022-08-05T09:23:18.913Z,59.17
2022-08-05T09:24:17.107Z,58.25
2022-08-05T09:25:24.333Z,58.54
2022-08-05T09:26:20.740Z,58.64
2022-08-05T09:27:18.793Z,58.84
2022-08-05T09:28:21.135Z,57.95
2022-08-05T09:29:18.828Z,58.15
2022-08-05T09:30:17.036Z,59.20
2022-08-05T09:31:58.573Z,59.50
2022-08-05T09:32:42.018Z,58.42
2022-08-05T09:33:18.008Z,58.22
2022-08-05T09:34:16.996Z,57.03
2022-08-05T09:35:26.808Z,58.42
2022-08-05T09:36:17.995Z,56.74
2022-08-05T09:37:16.967Z,56.93
2022-08-05T09:38:27.359Z,56.63
2022-08-05T09:39:21.903Z,57.40
2022-08-05T09:40:16.993Z,58.39
2022-08-05T09:41:16.926Z,56.12
2022-08-05T09:42:23.517Z,54.83
2022-08-05T09:43:17.897Z,57.01
2022-08-05T09:44:16.885Z,56.91
2022-08-05T09:46:04.696Z,57.01
2022-08-05T09:46:17.864Z,57.60
2022-08-05T09:47:17.875Z,58.09
2022-08-05T09:48:16.848Z,57.28
2022-08-05T09:49:19.068Z,56.19
2022-08-05T09:50:18.237Z,56.48
2022-08-05T09:51:17.815Z,56.48
2022-08-05T09:52:16.797Z,57.07
2022-08-05T09:53:25.810Z,57.07
2022-08-05T09:54:28.781Z,54.31
2022-08-05T09:55:56.833Z,54.80
2022-08-05T09:56:17.746Z,55.00
2022-08-05T09:57:23.319Z,56.68
2022-08-05T09:58:17.735Z,55.49
2022-08-05T09:59:17.258Z,54.80
2022-08-05T10:00:16.705Z,54.02
2022-08-05T10:01:39.710Z,55.10
2022-08-05T10:02:17.763Z,55.00
2022-08-05T10:03:16.676Z,54.80
2022-08-05T10:04:17.495Z,55.20
2022-08-05T10:05:16.646Z,55.33
2022-08-05T10:06:16.636Z,55.89
2022-08-05T10:07:31.887Z,56.19
2022-08-05T10:08:37.706Z,54.71
2022-08-05T10:09:27.888Z,54.97
2022-08-05T10:10:17.953Z,55.37
2022-08-05T10:11:17.577Z,55.27
2022-08-05T10:12:30.562Z,55.15
2022-08-05T10:13:17.556Z,55.44
2022-08-05T10:14:16.566Z,55.62
2022-08-05T10:15:17.289Z,55.81
2022-08-05T10:16:16.578Z,52.56
2022-08-05T10:17:37.444Z,53.54
2022-08-05T10:18:17.520Z,54.63
2022-08-05T10:19:16.504Z,54.60
2022-08-05T10:20:18.162Z,54.90
2022-08-05T10:21:16.623Z,54.30
2022-08-05T10:22:29.870Z,53.22
2022-08-05T10:23:34.762Z,53.02
2022-08-05T10:24:17.446Z,52.23
2022-08-05T10:25:16.426Z,51.64
2022-08-05T10:26:16.417Z,52.33
2022-08-05T10:27:16.732Z,51.94
2022-08-05T10:28:19.165Z,52.14
2022-08-05T10:29:22.000Z,51.15
2022-08-05T10:32:48.910Z,52.33
2022-08-05T10:32:52.922Z,52.26
2022-08-05T10:32:54.221Z,51.37
2022-08-05T10:33:17.347Z,52.06
2022-08-05T10:34:17.026Z,51.77
2022-08-05T10:35:16.317Z,51.40
2022-08-05T10:36:16.310Z,52.58
2022-08-05T10:37:17.296Z,53.47
2022-08-05T10:38:16.306Z,51.59
2022-08-05T10:39:24.024Z,52.68
2022-08-05T10:40:18.039Z,52.61
2022-08-05T10:41:23.468Z,53.10
2022-08-05T10:42:18.430Z,51.75
2022-08-05T10:43:16.226Z,52.83
2022-08-05T10:44:16.227Z,54.11
2022-08-05T10:45:23.757Z,53.03
2022-08-05T10:46:17.216Z,53.35
2022-08-05T10:47:26.770Z,54.53
2022-08-05T10:48:30.076Z,54.24
2022-08-05T10:49:17.220Z,54.24
2022-08-05T10:50:32.225Z,54.44
2022-08-05T10:51:22.490Z,52.58
2022-08-05T10:52:17.149Z,52.88
2022-08-05T10:53:16.124Z,53.77
2022-08-05T10:54:28.369Z,52.98
2022-08-05T10:55:18.537Z,52.69
2022-08-05T10:56:25.700Z,53.28
2022-08-05T10:57:17.075Z,54.56
2022-08-05T10:58:16.083Z,55.55
2022-08-05T11:00:03.328Z,54.49
2022-08-05T11:00:20.238Z,54.59
2022-08-05T11:01:16.168Z,54.98
2022-08-05T11:02:37.445Z,57.65
2022-08-05T11:03:25.463Z,55.08
2022-08-05T11:04:16.998Z,56.17
2022-08-05T11:05:18.158Z,54.79
2022-08-05T11:06:17.918Z,55.26
2022-08-05T11:07:16.317Z,53.87
2022-08-05T11:08:36.691Z,54.46
2022-08-05T11:09:17.332Z,55.33
2022-08-05T11:10:15.936Z,54.41
2022-08-05T11:11:16.809Z,53.69
2022-08-05T11:12:15.946Z,54.85
2022-08-05T11:13:15.897Z,53.44
2022-08-05T11:14:15.906Z,50.78
2022-08-05T11:15:20.107Z,50.98
2022-08-05T11:16:16.857Z,52.23
2022-08-05T11:17:58.767Z,51.64
2022-08-05T11:18:16.839Z,49.79
2022-08-05T11:20:16.575Z,49.90
2022-08-05T11:20:18.495Z,50.38
2022-08-05T11:21:15.806Z,51.20
2022-08-05T11:22:15.797Z,50.90
2022-08-05T11:23:15.786Z,51.99
2022-08-05T11:24:30.745Z,49.72
2022-08-05T11:26:06.004Z,50.34
2022-08-05T11:26:16.767Z,51.03
2022-08-05T11:27:16.743Z,50.14
2022-08-05T11:28:17.291Z,51.13
2022-08-05T11:29:15.727Z,51.13
2022-08-05T11:30:15.710Z,52.41
2022-08-05T11:31:54.182Z,50.73
2022-08-05T11:32:16.775Z,53.79
2022-08-05T11:33:21.213Z,54.28
2022-08-05T11:34:22.494Z,52.70
2022-08-05T11:35:16.646Z,53.50
2022-08-05T11:36:16.722Z,54.09
2022-08-05T11:38:30.134Z,53.79
2022-08-05T11:38:30.467Z,54.58
2022-08-05T11:39:16.647Z,54.78
2022-08-05T11:40:15.603Z,54.68
2022-08-05T11:41:58.120Z,54.09
2022-08-05T11:42:18.402Z,52.61
2022-08-05T11:43:15.566Z,52.14
2022-08-05T11:44:40.150Z,54.61
2022-08-05T11:45:26.835Z,54.97
2022-08-05T11:46:32.484Z,56.85
2022-08-05T11:47:21.766Z,55.66
2022-08-05T11:48:16.537Z,57.34
2022-08-05T11:49:15.527Z,53.69
2022-08-05T11:50:15.528Z,53.20
2022-08-05T11:51:43.754Z,53.20
2022-08-05T11:52:16.467Z,54.97
2022-08-05T11:53:16.456Z,53.50
2022-08-05T11:54:15.457Z,52.48
2022-08-05T11:55:15.437Z,52.14
2022-08-05T11:56:15.427Z,53.09
2022-08-05T11:57:25.919Z,51.50
2022-08-05T11:58:17.429Z,50.78
2022-08-05T11:59:15.387Z,50.90
2022-08-05T12:00:16.398Z,51.40
2022-08-05T12:01:15.421Z,50.12
2022-08-05T12:02:30.583Z,50.14
2022-08-05T12:03:16.423Z,50.04
2022-08-05T12:04:16.336Z,52.19
2022-08-05T12:05:18.532Z,52.19
2022-08-05T12:06:15.318Z,51.99
2022-08-05T12:07:15.306Z,52.09
2022-08-05T12:08:18.176Z,50.09
2022-08-05T12:09:19.826Z,50.21
2022-08-05T12:10:16.288Z,48.83
2022-08-05T12:11:20.288Z,48.64
2022-08-05T12:12:16.247Z,48.86
2022-08-05T12:13:16.372Z,48.76
2022-08-05T12:14:15.227Z,50.34
2022-08-05T12:15:16.809Z,50.95
2022-08-05T12:16:15.645Z,50.07
2022-08-05T12:18:02.880Z,50.26
2022-08-05T12:18:16.378Z,51.25
2022-08-05T12:20:27.657Z,51.25
2022-08-05T12:20:27.718Z,52.04
2022-08-05T12:21:16.160Z,52.23
2022-08-05T12:22:19.913Z,51.87
2022-08-05T12:23:16.116Z,52.66
2022-08-05T12:24:17.121Z,55.22
2022-08-05T12:25:15.116Z,53.05
2022-08-05T12:26:15.086Z,52.85
2022-08-05T12:27:21.625Z,51.47
2022-08-05T12:28:16.071Z,52.66
2022-08-05T12:29:16.131Z,52.43
2022-08-05T12:30:15.573Z,52.11
2022-08-05T12:31:28.056Z,53.36
2022-08-05T12:32:16.018Z,51.00
2022-08-05T12:33:27.224Z,50.49
2022-08-05T12:34:21.476Z,51.00
2022-08-05T12:35:16.960Z,53.05
2022-08-05T12:36:15.975Z,49.99
2022-08-05T12:37:17.648Z,50.37
2022-08-05T12:38:15.948Z,50.85
2022-08-05T12:39:15.967Z,48.30
2022-08-05T12:40:20.804Z,49.08
2022-08-05T12:41:16.210Z,49.28
2022-08-05T12:42:15.328Z,47.02
2022-08-05T12:43:20.561Z,47.80
2022-08-05T12:44:21.549Z,47.12
2022-08-05T12:45:15.868Z,47.63
2022-08-05T12:46:14.875Z,48.61
2022-08-05T12:47:25.446Z,48.82
2022-08-05T12:48:17.715Z,49.48
2022-08-05T12:49:15.826Z,49.08
2022-08-05T12:50:14.817Z,48.89
2022-08-05T12:52:10.339Z,49.38
2022-08-05T12:52:23.828Z,49.35